Observation data for Seagraves on 09/14/2017      Previous  Date       Current Mesonet Observations  Soil Data  Daily Summary Page  Observations in Plain Language
KSGV 140505Z 12007KT 24/10 A2986 RMK A01 T02380096  RH  041%=      5-min Rain = 0
KSGV 140510Z 12006KT 24/10 A2986 RMK A01 T02360097  RH  042%=      5-min Rain = 0
KSGV 140515Z 12005KT 23/10 A2986 RMK A01 T02340098  RH  043%=      5-min Rain = 0
KSGV 140520Z 12006KT 23/10 A2986 RMK A01 T02330099  RH  043%=      5-min Rain = 0
KSGV 140525Z 12005KT 23/10 A2986 RMK A01 T02310099  RH  044%=      5-min Rain = 0
KSGV 140530Z 12005KT 23/10 A2986 RMK A01 T02300098  RH  044%=      5-min Rain = 0
KSGV 140535Z 13005KT 23/10 A2986 RMK A01 T02290098  RH  044%=      5-min Rain = 0
KSGV 140540Z 13005KT 23/10 A2986 RMK A01 T02280099  RH  045%=      5-min Rain = 0
KSGV 140545Z 12006KT 23/10 A2986 RMK A01 T02260099  RH  045%=      5-min Rain = 0
KSGV 140550Z 12006KT 23/10 A2986 RMK A01 T02260099  RH  045%=      5-min Rain = 0
KSGV 140555Z 12006KT 23/10 A2986 RMK A01 T02250099  RH  045%=      5-min Rain = 0
KSGV 140600Z 12005KT 22/10 A2986 RMK A01 T02240099  RH  046%=      5-min Rain = 0
KSGV 140605Z 12006KT 22/10 A2986 RMK A01 T02230099  RH  046%=      5-min Rain = 0
KSGV 140610Z 12006KT 22/10 A2986 RMK A01 T02230099  RH  046%=      5-min Rain = 0
KSGV 140615Z 12006KT 22/10 A2986 RMK A01 T02230099  RH  046%=      5-min Rain = 0
KSGV 140620Z 12005KT 22/10 A2986 RMK A01 T02230099  RH  046%=      5-min Rain = 0
KSGV 140625Z 13005KT 22/10 A2987 RMK A01 T02220099  RH  046%=      5-min Rain = 0
KSGV 140630Z 13005KT 22/10 A2987 RMK A01 T02190100  RH  047%=      5-min Rain = 0
KSGV 140635Z 13005KT 22/10 A2987 RMK A01 T02150100  RH  049%=      5-min Rain = 0
KSGV 140640Z 12007KT 21/10 A2986 RMK A01 T02140100  RH  049%=      5-min Rain = 0
KSGV 140645Z 12005KT 22/10 A2986 RMK A01 T02170100  RH  048%=      5-min Rain = 0
KSGV 140650Z 12006KT 22/10 A2986 RMK A01 T02170100  RH  048%=      5-min Rain = 0
KSGV 140655Z 13005KT 21/10 A2986 RMK A01 T02140102  RH  050%=      5-min Rain = 0
KSGV 140700Z 13005KT 21/10 A2986 RMK A01 T02090103  RH  052%=      5-min Rain = 0
KSGV 140705Z 12005G10KT 21/10 A2986 RMK A01 T02060103  RH  053%=      5-min Rain = 0
KSGV 140710Z 13006KT 21/10 A2986 RMK A01 T02080102  RH  052%=      5-min Rain = 0
KSGV 140715Z 13005KT 21/10 A2985 RMK A01 T02080101  RH  051%=      5-min Rain = 0
KSGV 140720Z 13005KT 21/10 A2986 RMK A01 T02070101  RH  051%=      5-min Rain = 0
KSGV 140725Z 11006KT 21/10 A2986 RMK A01 T02060101  RH  052%=      5-min Rain = 0
KSGV 140730Z 11006KT 21/10 A2985 RMK A01 T02060101  RH  052%=      5-min Rain = 0
KSGV 140735Z 11007KT 21/10 A2985 RMK A01 T02080099  RH  050%=      5-min Rain = 0
KSGV 140740Z 12007KT 21/10 A2985 RMK A01 T02100099  RH  050%=      5-min Rain = 0
KSGV 140745Z 12006KT 21/10 A2985 RMK A01 T02110099  RH  050%=      5-min Rain = 0
KSGV 140750Z 12006KT 21/10 A2985 RMK A01 T02100100  RH  050%=      5-min Rain = 0
KSGV 140755Z 12006KT 21/10 A2985 RMK A01 T02080101  RH  051%=      5-min Rain = 0
KSGV 140800Z 11006KT 21/10 A2985 RMK A01 T02070100  RH  051%=      5-min Rain = 0
KSGV 140805Z 12005KT 21/10 A2985 RMK A01 T02050100  RH  052%=      5-min Rain = 0
KSGV 140810Z 12005KT 20/10 A2985 RMK A01 T02030100  RH  052%=      5-min Rain = 0
KSGV 140815Z 11007KT 20/10 A2985 RMK A01 T02020100  RH  053%=      5-min Rain = 0
KSGV 140820Z 12005KT 20/10 A2985 RMK A01 T02020101  RH  053%=      5-min Rain = 0
KSGV 140825Z 13005KT 20/10 A2985 RMK A01 T01990101  RH  054%=      5-min Rain = 0
KSGV 140830Z 12006KT 20/10 A2985 RMK A01 T01950101  RH  056%=      5-min Rain = 0
KSGV 140835Z 11005KT 20/10 A2985 RMK A01 T01950101  RH  055%=      5-min Rain = 0
KSGV 140840Z 11004KT 19/10 A2985 RMK A01 T01940102  RH  056%=      5-min Rain = 0
KSGV 140845Z 11004KT 19/10 A2985 RMK A01 T01930102  RH  057%=      5-min Rain = 0
KSGV 140850Z 12005KT 19/10 A2985 RMK A01 T01920102  RH  057%=      5-min Rain = 0
KSGV 140855Z 11004KT 19/10 A2985 RMK A01 T01930102  RH  057%=      5-min Rain = 0
KSGV 140900Z 12004KT 19/10 A2985 RMK A01 T01930102  RH  057%=      5-min Rain = 0
KSGV 140905Z 12004KT 19/10 A2984 RMK A01 T01920102  RH  057%=      5-min Rain = 0
KSGV 140910Z 12005KT 19/10 A2984 RMK A01 T01920102  RH  057%=      5-min Rain = 0
KSGV 140915Z 12005KT 19/10 A2984 RMK A01 T01910102  RH  057%=      5-min Rain = 0
KSGV 140920Z 12004KT 19/10 A2984 RMK A01 T01910102  RH  057%=      5-min Rain = 0
KSGV 140925Z 12004KT 19/10 A2984 RMK A01 T01900102  RH  057%=      5-min Rain = 0
KSGV 140930Z 12004KT 19/10 A2984 RMK A01 T01900102  RH  057%=      5-min Rain = 0
KSGV 140935Z 12004KT 19/10 A2984 RMK A01 T01880102  RH  058%=      5-min Rain = 0
KSGV 140940Z 12004KT 19/10 A2984 RMK A01 T01870102  RH  059%=      5-min Rain = 0
KSGV 140945Z 12004KT 19/10 A2984 RMK A01 T01850102  RH  060%=      5-min Rain = 0
KSGV 140950Z 12004KT 18/10 A2984 RMK A01 T01840103  RH  060%=      5-min Rain = 0
KSGV 140955Z 12003KT 18/10 A2984 RMK A01 T01830103  RH  060%=      5-min Rain = 0
KSGV 141000Z 12003KT 18/10 A2984 RMK A01 T01820103  RH  061%=      5-min Rain = 0
KSGV 141005Z 13004KT 18/10 A2984 RMK A01 T01820103  RH  061%=      5-min Rain = 0
KSGV 141010Z 12004KT 18/10 A2984 RMK A01 T01810103  RH  061%=      5-min Rain = 0
KSGV 141015Z 12004KT 18/10 A2984 RMK A01 T01810103  RH  061%=      5-min Rain = 0
KSGV 141020Z 12003KT 18/10 A2984 RMK A01 T01820103  RH  061%=      5-min Rain = 0
KSGV 141025Z 12004KT 18/10 A2984 RMK A01 T01820103  RH  061%=      5-min Rain = 0
KSGV 141030Z 13004KT 18/10 A2984 RMK A01 T01800103  RH  062%=      5-min Rain = 0
KSGV 141035Z 14004KT 18/10 A2984 RMK A01 T01790103  RH  062%=      5-min Rain = 0
KSGV 141040Z 14004KT 18/10 A2984 RMK A01 T01780103  RH  062%=      5-min Rain = 0
KSGV 141045Z 13004KT 18/10 A2984 RMK A01 T01770103  RH  063%=      5-min Rain = 0
KSGV 141050Z 13004KT 18/10 A2984 RMK A01 T01760103  RH  063%=      5-min Rain = 0
KSGV 141055Z 13003KT 18/10 A2984 RMK A01 T01760103  RH  063%=      5-min Rain = 0
KSGV 141100Z 13003KT 18/10 A2984 RMK A01 T01750103  RH  063%=      5-min Rain = 0
KSGV 141105Z 13003KT 18/10 A2984 RMK A01 T01750103  RH  064%=      5-min Rain = 0
KSGV 141110Z 12003KT 17/10 A2984 RMK A01 T01740103  RH  064%=      5-min Rain = 0
KSGV 141115Z 12002KT 17/10 A2985 RMK A01 T01730103  RH  064%=      5-min Rain = 0
KSGV 141120Z 14001KT 17/10 A2985 RMK A01 T01710100  RH  064%=      5-min Rain = 0
KSGV 141125Z 14002KT 17/10 A2985 RMK A01 T01650100  RH  066%=      5-min Rain = 0
KSGV 141130Z 13002KT 16/10 A2985 RMK A01 T01590101  RH  069%=      5-min Rain = 0
KSGV 141135Z 11001KT 15/10 A2985 RMK A01 T01540096  RH  070%=      5-min Rain = 0
KSGV 141140Z 12002KT 15/10 A2985 RMK A01 T01480098  RH  073%=      5-min Rain = 0
KSGV 141145Z 13002KT 15/10 A2985 RMK A01 T01460098  RH  074%=      5-min Rain = 0
KSGV 141150Z 12001KT 15/10 A2986 RMK A01 T01470101  RH  075%=      5-min Rain = 0
KSGV 141155Z 11001KT 15/10 A2986 RMK A01 T01480099  RH  074%=      5-min Rain = 0
KSGV 141200Z 13002KT 15/10 A2986 RMK A01 T01460099  RH  075%=      5-min Rain = 0
KSGV 141205Z 13001KT 14/10 A2986 RMK A01 T01440097  RH  075%=      5-min Rain = 0
KSGV 141210Z 13001KT 14/10 A2986 RMK A01 T01420099  RH  077%=      5-min Rain = 0
KSGV 141215Z 14003KT 14/10 A2986 RMK A01 T01420099  RH  077%=      5-min Rain = 0
KSGV 141220Z 14004KT 14/10 A2986 RMK A01 T01430097  RH  075%=      5-min Rain = 0
KSGV 141225Z 14004KT 14/10 A2986 RMK A01 T01420097  RH  076%=      5-min Rain = 0
KSGV 141230Z 14004KT 15/10 A2986 RMK A01 T01460102  RH  076%=      5-min Rain = 0
KSGV 141235Z 14004KT 16/10 A2986 RMK A01 T01560103  RH  072%=      5-min Rain = 0
KSGV 141240Z 15003KT 16/10 A2986 RMK A01 T01600102  RH  070%=      5-min Rain = 0
KSGV 141245Z 18002KT 16/10 A2987 RMK A01 T01580100  RH  070%=      5-min Rain = 0
KSGV 141250Z 24003KT 15/10 A2987 RMK A01 T01470096  RH  073%=      5-min Rain = 0
KSGV 141255Z 25004KT 14/10 A2988 RMK A01 T01440095  RH  074%=      5-min Rain = 0
KSGV 141300Z 26005KT 15/10 A2988 RMK A01 T01460099  RH  075%=      5-min Rain = 0
KSGV 141305Z 26005KT 15/10 A2988 RMK A01 T01470102  RH  075%=      5-min Rain = 0
KSGV 141310Z 24002KT 15/10 A2988 RMK A01 T01520103  RH  074%=      5-min Rain = 0
KSGV 141315Z 29002KT 16/10 A2988 RMK A01 T01580104  RH  071%=      5-min Rain = 0
KSGV 141320Z 29002KT 16/11 A2989 RMK A01 T01620109  RH  072%=      5-min Rain = 0
KSGV 141325Z 29004KT 17/11 A2989 RMK A01 T01660113  RH  072%=      5-min Rain = 0
KSGV 141330Z 32003KT 17/12 A2989 RMK A01 T01700118  RH  073%=      5-min Rain = 0
KSGV 141335Z 32003KT 17/12 A2989 RMK A01 T01730117  RH  071%=      5-min Rain = 0
KSGV 141340Z 31003KT 18/12 A2989 RMK A01 T01780116  RH  068%=      5-min Rain = 0
KSGV 141345Z 32000KT 18/12 A2989 RMK A01 T01830116  RH  066%=      5-min Rain = 0
KSGV 141350Z 29001KT 19/12 A2989 RMK A01 T01890115  RH  063%=      5-min Rain = 0
KSGV 141355Z 22001KT 20/11 A2989 RMK A01 T01960109  RH  058%=      5-min Rain = 0
KSGV 141400Z 20001KT 20/11 A2989 RMK A01 T02000106  RH  056%=      5-min Rain = 0
KSGV 141405Z 20002KT 21/11 A2989 RMK A01 T02050107  RH  054%=      5-min Rain = 0
KSGV 141410Z 22002KT 21/11 A2989 RMK A01 T02090108  RH  053%=      5-min Rain = 0
KSGV 141415Z 18002KT 21/11 A2989 RMK A01 T02140105  RH  051%=      5-min Rain = 0
KSGV 141420Z 18002KT 22/10 A2989 RMK A01 T02210100  RH  047%=      5-min Rain = 0
KSGV 141425Z 19003KT 23/10 A2989 RMK A01 T02260097  RH  045%=      5-min Rain = 0
KSGV 141430Z 19003KT 23/10 A2988 RMK A01 T02300098  RH  044%=      5-min Rain = 0
KSGV 141435Z 20003KT 24/10 A2988 RMK A01 T02370097  RH  042%=      5-min Rain = 0
KSGV 141440Z 21003KT 24/10 A2989 RMK A01 T02390095  RH  041%=      5-min Rain = 0
KSGV 141445Z 21003KT 24/09 A2989 RMK A01 T02440094  RH  039%=      5-min Rain = 0
KSGV 141450Z 24003KT 25/09 A2989 RMK A01 T02480090  RH  037%=      5-min Rain = 0
KSGV 141455Z 24003KT 25/09 A2989 RMK A01 T02520089  RH  036%=      5-min Rain = 0
KSGV 141500Z 23004KT 25/09 A2989 RMK A01 T02530088  RH  036%=      5-min Rain = 0
KSGV 141505Z 23004KT 26/09 A2989 RMK A01 T02550089  RH  035%=      5-min Rain = 0
KSGV 141510Z 23004KT 26/09 A2989 RMK A01 T02580090  RH  035%=      5-min Rain = 0
KSGV 141515Z 22004KT 26/09 A2989 RMK A01 T02610088  RH  034%=      5-min Rain = 0
KSGV 141520Z 21004KT 26/09 A2989 RMK A01 T02640090  RH  034%=      5-min Rain = 0
KSGV 141525Z 21004KT 27/09 A2989 RMK A01 T02680088  RH  033%=      5-min Rain = 0
KSGV 141530Z 20005KT 27/09 A2989 RMK A01 T02710087  RH  032%=      5-min Rain = 0
KSGV 141535Z 21004KT 27/09 A2989 RMK A01 T02720086  RH  032%=      5-min Rain = 0
KSGV 141540Z 18003KT 28/09 A2989 RMK A01 T02750087  RH  031%=      5-min Rain = 0
KSGV 141545Z 20003KT 28/09 A2989 RMK A01 T02810085  RH  030%=      5-min Rain = 0
KSGV 141550Z 19003KT 28/09 A2989 RMK A01 T02830085  RH  029%=      5-min Rain = 0
KSGV 141555Z 20002KT 29/08 A2989 RMK A01 T02870084  RH  028%=      5-min Rain = 0
KSGV 141600Z 25001KT 29/08 A2989 RMK A01 T02890084  RH  028%=      5-min Rain = 0
KSGV 141605Z 27003KT 29/08 A2989 RMK A01 T02940084  RH  027%=      5-min Rain = 0
KSGV 141610Z 23003KT 30/09 A2989 RMK A01 T02960085  RH  027%=      5-min Rain = 0
KSGV 141615Z 23003KT 30/09 A2989 RMK A01 T02970086  RH  027%=      5-min Rain = 0
KSGV 141620Z 23002KT 30/09 A2989 RMK A01 T03020088  RH  027%=      5-min Rain = 0
KSGV 141625Z 22004KT 31/09 A2989 RMK A01 T03050090  RH  027%=      5-min Rain = 0
KSGV 141630Z 22004KT 31/09 A2989 RMK A01 T03090092  RH  026%=      5-min Rain = 0
KSGV 141635Z 21004KT 31/09 A2989 RMK A01 T03110094  RH  026%=      5-min Rain = 0
KSGV 141640Z 20005KT 32/09 A2989 RMK A01 T03170094  RH  026%=      5-min Rain = 0
KSGV 141645Z 22006KT 32/09 A2989 RMK A01 T03200094  RH  025%=      5-min Rain = 0
KSGV 141650Z 24005KT 32/09 A2989 RMK A01 T03200093  RH  025%=      5-min Rain = 0
KSGV 141655Z 22004KT 32/09 A2989 RMK A01 T03230091  RH  024%=      5-min Rain = 0
KSGV 141700Z 27005KT 33/09 A2989 RMK A01 T03250092  RH  024%=      5-min Rain = 0
KSGV 141705Z 30005KT 33/10 A2989 RMK A01 T03290095  RH  024%=      5-min Rain = 0
KSGV 141710Z 29004KT 33/09 A2989 RMK A01 T03340091  RH  023%=      5-min Rain = 0
KSGV 141715Z 29006KT 34/09 A2989 RMK A01 T03350088  RH  022%=      5-min Rain = 0
KSGV 141720Z 27005KT 34/09 A2989 RMK A01 T03360087  RH  022%=      5-min Rain = 0
KSGV 141725Z 27004G9KT 34/09 A2989 RMK A01 T03390090  RH  022%=      5-min Rain = 0
KSGV 141730Z 29004KT 34/09 A2989 RMK A01 T03420092  RH  022%=      5-min Rain = 0
KSGV 141735Z 31005KT 34/09 A2989 RMK A01 T03440094  RH  022%=      5-min Rain = 0
KSGV 141740Z 31003KT 35/09 A2989 RMK A01 T03480092  RH  021%=      5-min Rain = 0
KSGV 141745Z 35003KT 35/09 A2989 RMK A01 T03460091  RH  021%=      5-min Rain = 0
KSGV 141750Z 31005G10KT 35/09 A2989 RMK A01 T03480085  RH  020%=      5-min Rain = 0
KSGV 141755Z 27006KT 35/08 A2989 RMK A01 T03510080  RH  019%=      5-min Rain = 0
KSGV 141800Z 26005KT 35/07 A2988 RMK A01 T03520073  RH  018%=      5-min Rain = 0
KSGV 141805Z 31003G8KT 35/07 A2988 RMK A01 T03530072  RH  018%=      5-min Rain = 0
KSGV 141810Z 30006KT 36/07 A2988 RMK A01 T03570068  RH  017%=      5-min Rain = 0
KSGV 141815Z 34002KT 35/07 A2988 RMK A01 T03540066  RH  017%=      5-min Rain = 0
KSGV 141820Z 28004KT 36/07 A2988 RMK A01 T03550067  RH  017%=      5-min Rain = 0
KSGV 141825Z 25004KT 36/06 A2988 RMK A01 T03560064  RH  017%=      5-min Rain = 0
KSGV 141830Z 26003KT 36/06 A2988 RMK A01 T03560062  RH  017%=      5-min Rain = 0
KSGV 141835Z 16003KT 36/06 A2987 RMK A01 T03590064  RH  017%=      5-min Rain = 0
KSGV 141840Z 12004KT 36/07 A2987 RMK A01 T03610065  RH  016%=      5-min Rain = 0
KSGV 141845Z 10004KT 36/07 A2987 RMK A01 T03610067  RH  017%=      5-min Rain = 0
KSGV 141850Z 09004KT 36/06 A2987 RMK A01 T03620064  RH  016%=      5-min Rain = 0
KSGV 141855Z 19001KT 36/07 A2987 RMK A01 T03610065  RH  016%=      5-min Rain = 0
KSGV 141900Z 35002KT 36/06 A2986 RMK A01 T03640064  RH  016%=      5-min Rain = 0
KSGV 141905Z 35003KT 37/07 A2986 RMK A01 T03670065  RH  016%=      5-min Rain = 0
KSGV 141910Z 16003KT 37/06 A2986 RMK A01 T03710063  RH  015%=      5-min Rain = 0
KSGV 141915Z 17004G10KT 38/07 A2985 RMK A01 T03760065  RH  015%=      5-min Rain = 0
KSGV 141920Z 15006KT 37/06 A2985 RMK A01 T03740060  RH  015%=      5-min Rain = 0
KSGV 141925Z 14004KT 37/06 A2985 RMK A01 T03710060  RH  015%=      5-min Rain = 0
KSGV 141930Z 11004KT 37/06 A2985 RMK A01 T03700057  RH  015%=      5-min Rain = 0
KSGV 141935Z 06004KT 37/06 A2985 RMK A01 T03690056  RH  015%=      5-min Rain = 0
KSGV 141940Z 15003KT 37/06 A2984 RMK A01 T03730055  RH  014%=      5-min Rain = 0
KSGV 141945Z 12003KT 38/05 A2984 RMK A01 T03750049  RH  014%=      5-min Rain = 0
KSGV 141950Z 19005KT 37/05 A2984 RMK A01 T03740051  RH  014%=      5-min Rain = 0
KSGV 141955Z 20005KT 38/05 A2984 RMK A01 T03760052  RH  014%=      5-min Rain = 0
KSGV 142000Z 23003KT 38/05 A2984 RMK A01 T03750053  RH  014%=      5-min Rain = 0
KSGV 142005Z 29003KT 37/05 A2983 RMK A01 T03740054  RH  014%=      5-min Rain = 0
KSGV 142010Z 18002KT 37/06 A2983 RMK A01 T03740056  RH  014%=      5-min Rain = 0
KSGV 142015Z 22003KT 38/06 A2983 RMK A01 T03820057  RH  014%=      5-min Rain = 0
KSGV 142020Z 28004KT 39/06 A2983 RMK A01 T03850056  RH  014%=      5-min Rain = 0
KSGV 142025Z 27004KT 38/05 A2983 RMK A01 T03810053  RH  014%=      5-min Rain = 0
KSGV 142030Z 33002G7KT 38/05 A2983 RMK A01 T03790052  RH  014%=      5-min Rain = 0
KSGV 142035Z 14005KT 38/06 A2982 RMK A01 T03810055  RH  014%=      5-min Rain = 0
KSGV 142040Z 16003KT 38/06 A2982 RMK A01 T03830055  RH  014%=      5-min Rain = 0
KSGV 142045Z 23006KT 38/05 A2982 RMK A01 T03810053  RH  014%=      5-min Rain = 0
KSGV 142050Z 27002G7KT 37/05 A2982 RMK A01 T03740051  RH  014%=      5-min Rain = 0
KSGV 142055Z 31002KT 37/05 A2982 RMK A01 T03740050  RH  014%=      5-min Rain = 0
KSGV 142100Z 17006KT 38/05 A2981 RMK A01 T03800052  RH  014%=      5-min Rain = 0
KSGV 142105Z 17004G9KT 38/05 A2981 RMK A01 T03820052  RH  013%=      5-min Rain = 0
KSGV 142110Z 23003KT 38/05 A2981 RMK A01 T03820052  RH  013%=      5-min Rain = 0
KSGV 142115Z 15005KT 38/05 A2981 RMK A01 T03820052  RH  013%=      5-min Rain = 0
KSGV 142120Z 14005KT 38/05 A2981 RMK A01 T03820050  RH  013%=      5-min Rain = 0
KSGV 142125Z 18004KT 38/05 A2981 RMK A01 T03810046  RH  013%=      5-min Rain = 0
KSGV 142130Z 15004G10KT 38/05 A298 RMK A01 T03830050  RH  013%=      5-min Rain = 0
KSGV 142135Z 18009KT 39/05 A298 RMK A01 T03850052  RH  013%=      5-min Rain = 0
KSGV 142140Z 16006G11KT 38/05 A298 RMK A01 T03830051  RH  013%=      5-min Rain = 0
KSGV 142145Z 17008G13KT 38/05 A298 RMK A01 T03810052  RH  013%=      5-min Rain = 0
KSGV 142150Z 16008KT 38/06 A298 RMK A01 T03810059  RH  014%=      5-min Rain = 0
KSGV 142155Z 14009G14KT 38/06 A298 RMK A01 T03780062  RH  015%=      5-min Rain = 0
KSGV 142200Z 15005KT 38/06 A2979 RMK A01 T03780062  RH  015%=      5-min Rain = 0
KSGV 142205Z 12007KT 38/06 A2979 RMK A01 T03810063  RH  015%=      5-min Rain = 0
KSGV 142210Z 13006KT 38/06 A2979 RMK A01 T03770064  RH  015%=      5-min Rain = 0
KSGV 142215Z 13006KT 37/07 A2979 RMK A01 T03700066  RH  016%=      5-min Rain = 0
KSGV 142220Z 12006KT 37/07 A2979 RMK A01 T03660067  RH  016%=      5-min Rain = 0
KSGV 142225Z 13006KT 37/06 A2979 RMK A01 T03700062  RH  015%=      5-min Rain = 0
KSGV 142230Z 14007KT 37/06 A2979 RMK A01 T03730059  RH  015%=      5-min Rain = 0
KSGV 142235Z 11006KT 37/06 A2979 RMK A01 T03730059  RH  015%=      5-min Rain = 0
KSGV 142240Z 10004KT 38/06 A2979 RMK A01 T03750057  RH  014%=      5-min Rain = 0
KSGV 142245Z 10008KT 38/07 A2979 RMK A01 T03750069  RH  016%=      5-min Rain = 0
KSGV 142250Z 11004G10KT 37/07 A2979 RMK A01 T03720067  RH  016%=      5-min Rain = 0
KSGV 142255Z 10009KT 37/07 A2979 RMK A01 T03720065  RH  016%=      5-min Rain = 0
KSGV 142300Z 15008KT 37/06 A2979 RMK A01 T03710060  RH  015%=      5-min Rain = 0
KSGV 142305Z 16007KT 37/06 A2979 RMK A01 T03680060  RH  015%=      5-min Rain = 0
KSGV 142310Z 14008KT 37/06 A2979 RMK A01 T03650060  RH  015%=      5-min Rain = 0
KSGV 142315Z 15006KT 37/06 A2979 RMK A01 T03650062  RH  016%=      5-min Rain = 0
KSGV 142320Z 14007KT 37/07 A2979 RMK A01 T03660067  RH  016%=      5-min Rain = 0
KSGV 142325Z 12007KT 36/08 A2979 RMK A01 T03640075  RH  017%=      5-min Rain = 0
KSGV 142330Z 13008G13KT 36/08 A2979 RMK A01 T03590077  RH  018%=      5-min Rain = 0
KSGV 142335Z 12007KT 35/08 A2979 RMK A01 T03540083  RH  019%=      5-min Rain = 0
KSGV 142340Z 13007KT 35/08 A2979 RMK A01 T03520082  RH  019%=      5-min Rain = 0
KSGV 142345Z 12008KT 35/08 A2979 RMK A01 T03500083  RH  020%=      5-min Rain = 0
KSGV 142350Z 12007KT 35/09 A2979 RMK A01 T03480085  RH  020%=      5-min Rain = 0
KSGV 142355Z 13008KT 35/09 A2979 RMK A01 T03450087  RH  021%=      5-min Rain = 0
KSGV 150000Z 14007KT 34/09 A2979 RMK A01 T03430088  RH  021%=      5-min Rain = 0
KSGV 150005Z 13007KT 34/09 A2979 RMK A01 T03420086  RH  021%=      5-min Rain = 0
KSGV 150010Z 12009KT 34/08 A2979 RMK A01 T03420080  RH  020%=      5-min Rain = 0
KSGV 150015Z 13008KT 34/08 A2979 RMK A01 T03420080  RH  020%=      5-min Rain = 0
KSGV 150020Z 13007G12KT 34/08 A298 RMK A01 T03410083  RH  021%=      5-min Rain = 0
KSGV 150025Z 14005KT 34/09 A298 RMK A01 T03380086  RH  021%=      5-min Rain = 0
KSGV 150030Z 12008G13KT 34/08 A298 RMK A01 T03380082  RH  021%=      5-min Rain = 0
KSGV 150035Z 11009KT 34/08 A298 RMK A01 T03390080  RH  021%=      5-min Rain = 0
KSGV 150040Z 11007KT 34/08 A298 RMK A01 T03390081  RH  021%=      5-min Rain = 0
KSGV 150045Z 10005KT 34/08 A298 RMK A01 T03380080  RH  021%=      5-min Rain = 0
KSGV 150050Z 09004KT 34/08 A298 RMK A01 T03360082  RH  021%=      5-min Rain = 0
KSGV 150055Z 08004KT 33/09 A298 RMK A01 T03330086  RH  022%=      5-min Rain = 0
KSGV 150100Z 08003KT 33/09 A298 RMK A01 T03290088  RH  023%=      5-min Rain = 0
KSGV 150105Z 08004KT 33/09 A298 RMK A01 T03250090  RH  024%=      5-min Rain = 0
KSGV 150110Z 09005KT 32/09 A298 RMK A01 T03210091  RH  024%=      5-min Rain = 0
KSGV 150115Z 09005KT 32/09 A298 RMK A01 T03180089  RH  025%=      5-min Rain = 0
KSGV 150120Z 09005KT 32/09 A298 RMK A01 T03160089  RH  025%=      5-min Rain = 0
KSGV 150125Z 09004KT 31/09 A298 RMK A01 T03130089  RH  025%=      5-min Rain = 0
KSGV 150130Z 10005KT 31/09 A298 RMK A01 T03110087  RH  025%=      5-min Rain = 0
KSGV 150135Z 10005KT 31/09 A2981 RMK A01 T03100086  RH  025%=      5-min Rain = 0
KSGV 150140Z 10004KT 31/09 A2981 RMK A01 T03070087  RH  026%=      5-min Rain = 0
KSGV 150145Z 10004KT 30/09 A2981 RMK A01 T03040088  RH  026%=      5-min Rain = 0
KSGV 150150Z 09004KT 30/09 A2981 RMK A01 T03000090  RH  027%=      5-min Rain = 0
KSGV 150155Z 10005KT 30/09 A2981 RMK A01 T02960089  RH  028%=      5-min Rain = 0
KSGV 150200Z 10004KT 29/09 A2981 RMK A01 T02930089  RH  028%=      5-min Rain = 0
KSGV 150205Z 10004KT 29/09 A2982 RMK A01 T02900090  RH  029%=      5-min Rain = 0
KSGV 150210Z 10003KT 29/09 A2982 RMK A01 T02860091  RH  030%=      5-min Rain = 0
KSGV 150215Z 11004KT 28/09 A2982 RMK A01 T02830090  RH  030%=      5-min Rain = 0
KSGV 150220Z 11003KT 28/09 A2982 RMK A01 T02820090  RH  031%=      5-min Rain = 0
KSGV 150225Z 11004KT 28/09 A2983 RMK A01 T02790090  RH  031%=      5-min Rain = 0
KSGV 150230Z 12004KT 28/09 A2983 RMK A01 T02780089  RH  031%=      5-min Rain = 0
KSGV 150235Z 13003KT 28/09 A2983 RMK A01 T02770090  RH  031%=      5-min Rain = 0
KSGV 150240Z 13004KT 27/09 A2983 RMK A01 T02730091  RH  032%=      5-min Rain = 0
KSGV 150245Z 14004KT 27/09 A2983 RMK A01 T02700090  RH  033%=      5-min Rain = 0
KSGV 150250Z 15003KT 27/09 A2983 RMK A01 T02670090  RH  033%=      5-min Rain = 0
KSGV 150255Z 16003KT 26/09 A2984 RMK A01 T02630090  RH  034%=      5-min Rain = 0
KSGV 150300Z 16002KT 25/10 A2984 RMK A01 T02510100  RH  039%=      5-min Rain = 0
KSGV 150305Z 15002KT 25/10 A2984 RMK A01 T02450099  RH  040%=      5-min Rain = 0
KSGV 150310Z 24002KT 24/10 A2984 RMK A01 T02400097  RH  041%=      5-min Rain = 0
KSGV 150315Z 24002KT 23/10 A2984 RMK A01 T02330099  RH  043%=      5-min Rain = 0
KSGV 150320Z 25002KT 23/10 A2984 RMK A01 T02330098  RH  043%=      5-min Rain = 0
KSGV 150325Z 17003KT 23/10 A2984 RMK A01 T02340097  RH  042%=      5-min Rain = 0
KSGV 150330Z 17004KT 24/09 A2984 RMK A01 T02410090  RH  039%=      5-min Rain = 0
KSGV 150335Z 18003KT 25/09 A2984 RMK A01 T02480091  RH  038%=      5-min Rain = 0
KSGV 150340Z 22002KT 25/09 A2984 RMK A01 T02450092  RH  039%=      5-min Rain = 0
KSGV 150345Z 22002KT 24/09 A2984 RMK A01 T02390092  RH  040%=      5-min Rain = 0
KSGV 150350Z 19002KT 24/09 A2984 RMK A01 T02380092  RH  040%=      5-min Rain = 0
KSGV 150355Z 19002KT 24/09 A2984 RMK A01 T02390092  RH  040%=      5-min Rain = 0
KSGV 150400Z 18003KT 24/09 A2984 RMK A01 T02410088  RH  038%=      5-min Rain = 0
KSGV 150405Z 19004KT 25/08 A2984 RMK A01 T02450084  RH  036%=      5-min Rain = 0
KSGV 150410Z 19005KT 25/08 A2984 RMK A01 T02470084  RH  036%=      5-min Rain = 0
KSGV 150415Z 18005KT 25/08 A2984 RMK A01 T02450084  RH  036%=      5-min Rain = 0
KSGV 150420Z 17004KT 25/08 A2984 RMK A01 T02460080  RH  035%=      5-min Rain = 0
KSGV 150425Z 17004KT 25/08 A2984 RMK A01 T02470079  RH  035%=      5-min Rain = 0
KSGV 150430Z 17003KT 25/08 A2984 RMK A01 T02470081  RH  035%=      5-min Rain = 0
KSGV 150435Z 17004KT 25/08 A2984 RMK A01 T02460083  RH  036%=      5-min Rain = 0
KSGV 150440Z 18004KT 25/08 A2984 RMK A01 T02460082  RH  036%=      5-min Rain = 0
KSGV 150445Z 18004KT 24/08 A2984 RMK A01 T02420083  RH  037%=      5-min Rain = 0
KSGV 150450Z 18004KT 24/08 A2984 RMK A01 T02380082  RH  037%=      5-min Rain = 0
KSGV 150455Z 18005KT 24/08 A2984 RMK A01 T02350083  RH  038%=      5-min Rain = 0
KSGV 150500Z 18006KT 23/08 A2984 RMK A01 T02330084  RH  039%=      5-min Rain = 0

Page generated in 0.009 seconds.